sensor_id;sensor_type;location;lat;lon;timestamp;temperature;humidity
15288;DHT22;7745;48.708;9.026;2023-04-03T00:00:53;4.20;99.90
15288;DHT22;7745;48.708;9.026;2023-04-03T00:03:21;3.70;99.90
15288;DHT22;7745;48.708;9.026;2023-04-03T00:05:48;3.80;99.90
15288;DHT22;7745;48.708;9.026;2023-04-03T00:08:15;3.70;99.90
15288;DHT22;7745;48.708;9.026;2023-04-03T00:10:42;4.10;99.90
15288;DHT22;7745;48.708;9.026;2023-04-03T00:13:10;4.20;99.90
15288;DHT22;7745;48.708;9.026;2023-04-03T00:15:37;4.00;99.90
15288;DHT22;7745;48.708;9.026;2023-04-03T00:18:05;3.80;99.90
15288;DHT22;7745;48.708;9.026;2023-04-03T00:20:33;3.70;99.90
15288;DHT22;7745;48.708;9.026;2023-04-03T00:23:01;4.10;99.90
15288;DHT22;7745;48.708;9.026;2023-04-03T00:25:28;3.60;99.90
15288;DHT22;7745;48.708;9.026;2023-04-03T00:27:57;3.40;99.90
15288;DHT22;7745;48.708;9.026;2023-04-03T00:30:25;3.90;99.90
15288;DHT22;7745;48.708;9.026;2023-04-03T00:32:52;3.90;99.90
15288;DHT22;7745;48.708;9.026;2023-04-03T00:35:20;4.00;99.90
15288;DHT22;7745;48.708;9.026;2023-04-03T00:37:50;4.20;99.90
15288;DHT22;7745;48.708;9.026;2023-04-03T00:40:18;4.60;99.90
15288;DHT22;7745;48.708;9.026;2023-04-03T00:42:47;3.90;99.90
15288;DHT22;7745;48.708;9.026;2023-04-03T00:45:31;3.60;99.90
15288;DHT22;7745;48.708;9.026;2023-04-03T00:48:00;3.60;99.90
15288;DHT22;7745;48.708;9.026;2023-04-03T00:50:29;3.80;99.90
15288;DHT22;7745;48.708;9.026;2023-04-03T00:52:57;3.60;99.90
15288;DHT22;7745;48.708;9.026;2023-04-03T00:55:25;3.50;99.90
15288;DHT22;7745;48.708;9.026;2023-04-03T00:57:52;3.60;99.90
15288;DHT22;7745;48.708;9.026;2023-04-03T01:00:20;3.90;99.90
15288;DHT22;7745;48.708;9.026;2023-04-03T01:02:49;3.70;99.90
15288;DHT22;7745;48.708;9.026;2023-04-03T01:05:17;3.60;99.90
15288;DHT22;7745;48.708;9.026;2023-04-03T01:07:45;3.50;99.90
15288;DHT22;7745;48.708;9.026;2023-04-03T01:10:15;3.50;99.90
15288;DHT22;7745;48.708;9.026;2023-04-03T01:12:43;3.50;99.90
15288;DHT22;7745;48.708;9.026;2023-04-03T01:15:12;3.50;99.90
15288;DHT22;7745;48.708;9.026;2023-04-03T01:17:42;3.50;99.90
15288;DHT22;7745;48.708;9.026;2023-04-03T01:20:26;3.50;99.90
15288;DHT22;7745;48.708;9.026;2023-04-03T01:23:11;3.50;99.90
15288;DHT22;7745;48.708;9.026;2023-04-03T01:25:42;3.50;99.90
15288;DHT22;7745;48.708;9.026;2023-04-03T01:28:13;4.00;99.90
15288;DHT22;7745;48.708;9.026;2023-04-03T01:30:45;3.50;99.90
15288;DHT22;7745;48.708;9.026;2023-04-03T01:33:15;4.00;99.90
15288;DHT22;7745;48.708;9.026;2023-04-03T01:35:42;3.50;99.90
15288;DHT22;7745;48.708;9.026;2023-04-03T01:38:09;3.50;99.90
15288;DHT22;7745;48.708;9.026;2023-04-03T01:40:36;3.30;99.90
15288;DHT22;7745;48.708;9.026;2023-04-03T01:43:03;3.70;99.90
15288;DHT22;7745;48.708;9.026;2023-04-03T01:45:30;3.40;99.90
15288;DHT22;7745;48.708;9.026;2023-04-03T01:47:57;3.50;99.90
15288;DHT22;7745;48.708;9.026;2023-04-03T01:50:25;3.70;99.90
15288;DHT22;7745;48.708;9.026;2023-04-03T01:52:52;3.60;99.90
15288;DHT22;7745;48.708;9.026;2023-04-03T01:55:19;3.70;99.90
15288;DHT22;7745;48.708;9.026;2023-04-03T01:57:46;3.40;99.90
15288;DHT22;7745;48.708;9.026;2023-04-03T02:00:14;3.50;99.90
15288;DHT22;7745;48.708;9.026;2023-04-03T02:02:41;3.40;99.90
15288;DHT22;7745;48.708;9.026;2023-04-03T02:05:08;3.60;99.90
15288;DHT22;7745;48.708;9.026;2023-04-03T02:07:36;3.30;99.90
15288;DHT22;7745;48.708;9.026;2023-04-03T02:10:04;3.10;99.90
15288;DHT22;7745;48.708;9.026;2023-04-03T02:12:31;3.30;99.90
15288;DHT22;7745;48.708;9.026;2023-04-03T02:14:58;3.30;99.90
15288;DHT22;7745;48.708;9.026;2023-04-03T02:17:24;3.20;99.90
15288;DHT22;7745;48.708;9.026;2023-04-03T02:19:51;3.20;99.90
15288;DHT22;7745;48.708;9.026;2023-04-03T02:22:18;3.40;99.90
15288;DHT22;7745;48.708;9.026;2023-04-03T02:24:47;4.00;99.90
15288;DHT22;7745;48.708;9.026;2023-04-03T02:27:14;3.40;99.90
15288;DHT22;7745;48.708;9.026;2023-04-03T02:29:41;3.50;99.90
15288;DHT22;7745;48.708;9.026;2023-04-03T02:32:08;3.30;99.90
15288;DHT22;7745;48.708;9.026;2023-04-03T02:34:35;4.30;99.90
15288;DHT22;7745;48.708;9.026;2023-04-03T02:37:02;3.20;99.90
15288;DHT22;7745;48.708;9.026;2023-04-03T02:39:28;3.30;99.90
15288;DHT22;7745;48.708;9.026;2023-04-03T02:41:57;3.60;99.90
15288;DHT22;7745;48.708;9.026;2023-04-03T02:44:24;3.30;99.90
15288;DHT22;7745;48.708;9.026;2023-04-03T02:46:50;3.60;99.90
15288;DHT22;7745;48.708;9.026;2023-04-03T02:49:17;3.30;99.90
15288;DHT22;7745;48.708;9.026;2023-04-03T02:51:44;3.60;99.90
15288;DHT22;7745;48.708;9.026;2023-04-03T02:54:11;3.30;99.90
15288;DHT22;7745;48.708;9.026;2023-04-03T02:56:38;3.30;99.90
15288;DHT22;7745;48.708;9.026;2023-04-03T02:59:07;3.90;99.90
15288;DHT22;7745;48.708;9.026;2023-04-03T03:01:34;3.40;99.90
15288;DHT22;7745;48.708;9.026;2023-04-03T03:04:01;3.20;99.90
15288;DHT22;7745;48.708;9.026;2023-04-03T03:06:28;3.50;99.90
15288;DHT22;7745;48.708;9.026;2023-04-03T03:08:55;3.50;99.90
15288;DHT22;7745;48.708;9.026;2023-04-03T03:11:22;3.40;99.90
15288;DHT22;7745;48.708;9.026;2023-04-03T03:13:48;3.40;99.90
15288;DHT22;7745;48.708;9.026;2023-04-03T03:16:17;3.10;99.90
15288;DHT22;7745;48.708;9.026;2023-04-03T03:18:44;3.60;99.90
15288;DHT22;7745;48.708;9.026;2023-04-03T03:21:11;3.30;99.90
15288;DHT22;7745;48.708;9.026;2023-04-03T03:23:39;3.20;99.90
15288;DHT22;7745;48.708;9.026;2023-04-03T03:26:07;3.50;99.90
15288;DHT22;7745;48.708;9.026;2023-04-03T03:28:35;3.20;99.90
15288;DHT22;7745;48.708;9.026;2023-04-03T03:31:03;3.10;99.90
15288;DHT22;7745;48.708;9.026;2023-04-03T03:33:32;3.20;99.90
15288;DHT22;7745;48.708;9.026;2023-04-03T03:35:59;3.20;99.90
15288;DHT22;7745;48.708;9.026;2023-04-03T03:38:26;2.80;99.90
15288;DHT22;7745;48.708;9.026;2023-04-03T03:40:54;3.30;99.90
15288;DHT22;7745;48.708;9.026;2023-04-03T03:43:21;3.40;99.90
15288;DHT22;7745;48.708;9.026;2023-04-03T03:45:50;3.20;99.90
15288;DHT22;7745;48.708;9.026;2023-04-03T03:48:18;3.30;99.90
15288;DHT22;7745;48.708;9.026;2023-04-03T03:50:46;3.20;99.90
15288;DHT22;7745;48.708;9.026;2023-04-03T03:53:13;3.20;99.90
15288;DHT22;7745;48.708;9.026;2023-04-03T03:55:40;3.50;99.90
15288;DHT22;7745;48.708;9.026;2023-04-03T03:58:07;3.20;99.90
15288;DHT22;7745;48.708;9.026;2023-04-03T04:00:35;3.70;99.90
15288;DHT22;7745;48.708;9.026;2023-04-03T04:03:02;3.20;99.90
15288;DHT22;7745;48.708;9.026;2023-04-03T04:05:28;3.20;99.90
15288;DHT22;7745;48.708;9.026;2023-04-03T04:07:57;3.20;99.90
15288;DHT22;7745;48.708;9.026;2023-04-03T04:10:24;3.50;99.90
15288;DHT22;7745;48.708;9.026;2023-04-03T04:12:51;3.20;99.90
15288;DHT22;7745;48.708;9.026;2023-04-03T04:15:18;3.40;99.90
15288;DHT22;7745;48.708;9.026;2023-04-03T04:17:46;3.50;99.90
15288;DHT22;7745;48.708;9.026;2023-04-03T04:20:14;3.30;99.90
15288;DHT22;7745;48.708;9.026;2023-04-03T04:22:43;3.20;99.90
15288;DHT22;7745;48.708;9.026;2023-04-03T04:25:11;3.70;99.90
15288;DHT22;7745;48.708;9.026;2023-04-03T04:27:39;3.40;99.90
15288;DHT22;7745;48.708;9.026;2023-04-03T04:30:07;3.20;99.90
15288;DHT22;7745;48.708;9.026;2023-04-03T04:32:34;3.20;99.90
15288;DHT22;7745;48.708;9.026;2023-04-03T04:35:01;3.20;99.90
15288;DHT22;7745;48.708;9.026;2023-04-03T04:37:28;3.40;99.90
15288;DHT22;7745;48.708;9.026;2023-04-03T04:39:55;3.60;99.90
15288;DHT22;7745;48.708;9.026;2023-04-03T04:42:24;3.30;99.90
15288;DHT22;7745;48.708;9.026;2023-04-03T04:44:51;3.20;99.90
15288;DHT22;7745;48.708;9.026;2023-04-03T04:47:18;3.20;99.90
15288;DHT22;7745;48.708;9.026;2023-04-03T04:49:45;3.40;99.90
15288;DHT22;7745;48.708;9.026;2023-04-03T04:52:12;3.40;99.90
15288;DHT22;7745;48.708;9.026;2023-04-03T04:54:39;3.20;99.90
15288;DHT22;7745;48.708;9.026;2023-04-03T04:57:06;3.20;99.90
15288;DHT22;7745;48.708;9.026;2023-04-03T04:59:34;3.30;99.90
15288;DHT22;7745;48.708;9.026;2023-04-03T05:02:01;3.30;99.90
15288;DHT22;7745;48.708;9.026;2023-04-03T05:04:40;3.40;99.90
15288;DHT22;7745;48.708;9.026;2023-04-03T05:07:10;3.20;99.90
15288;DHT22;7745;48.708;9.026;2023-04-03T05:09:37;3.20;99.90
15288;DHT22;7745;48.708;9.026;2023-04-03T05:12:15;3.30;99.90
15288;DHT22;7745;48.708;9.026;2023-04-03T05:14:45;3.40;99.90
15288;DHT22;7745;48.708;9.026;2023-04-03T05:17:15;4.20;99.90
15288;DHT22;7745;48.708;9.026;2023-04-03T05:19:48;3.20;99.90
15288;DHT22;7745;48.708;9.026;2023-04-03T05:22:21;3.20;99.90
15288;DHT22;7745;48.708;9.026;2023-04-03T05:25:02;3.30;99.90
15288;DHT22;7745;48.708;9.026;2023-04-03T05:27:37;3.20;99.90
15288;DHT22;7745;48.708;9.026;2023-04-03T05:30:27;3.40;99.90
15288;DHT22;7745;48.708;9.026;2023-04-03T05:32:54;3.30;99.90
15288;DHT22;7745;48.708;9.026;2023-04-03T05:35:24;3.70;99.90
15288;DHT22;7745;48.708;9.026;2023-04-03T05:37:54;3.30;99.90
15288;DHT22;7745;48.708;9.026;2023-04-03T05:40:22;3.50;99.90
15288;DHT22;7745;48.708;9.026;2023-04-03T05:42:54;4.20;99.90
15288;DHT22;7745;48.708;9.026;2023-04-03T05:45:29;3.60;99.90
15288;DHT22;7745;48.708;9.026;2023-04-03T05:47:56;3.80;99.90
15288;DHT22;7745;48.708;9.026;2023-04-03T05:50:23;3.50;99.90
15288;DHT22;7745;48.708;9.026;2023-04-03T05:52:51;3.50;99.90
15288;DHT22;7745;48.708;9.026;2023-04-03T05:55:19;3.70;99.90
15288;DHT22;7745;48.708;9.026;2023-04-03T05:57:46;3.90;99.90
15288;DHT22;7745;48.708;9.026;2023-04-03T06:00:14;3.70;99.90
15288;DHT22;7745;48.708;9.026;2023-04-03T06:02:43;3.80;99.90
15288;DHT22;7745;48.708;9.026;2023-04-03T06:05:10;3.90;99.90
15288;DHT22;7745;48.708;9.026;2023-04-03T06:07:41;4.00;99.90
15288;DHT22;7745;48.708;9.026;2023-04-03T06:10:14;3.70;99.90
15288;DHT22;7745;48.708;9.026;2023-04-03T06:15:41;3.70;99.90
15288;DHT22;7745;48.708;9.026;2023-04-03T06:18:16;3.70;99.90
15288;DHT22;7745;48.708;9.026;2023-04-03T06:20:52;3.60;99.90
15288;DHT22;7745;48.708;9.026;2023-04-03T06:23:28;3.60;99.90
15288;DHT22;7745;48.708;9.026;2023-04-03T06:26:09;3.50;99.90
15288;DHT22;7745;48.708;9.026;2023-04-03T06:28:36;3.40;99.90
15288;DHT22;7745;48.708;9.026;2023-04-03T06:31:44;3.90;99.90
15288;DHT22;7745;48.708;9.026;2023-04-03T06:34:56;3.40;99.90
15288;DHT22;7745;48.708;9.026;2023-04-03T06:37:42;3.50;99.90
15288;DHT22;7745;48.708;9.026;2023-04-03T06:40:31;3.80;99.90
15288;DHT22;7745;48.708;9.026;2023-04-03T06:49:24;3.60;99.90
15288;DHT22;7745;48.708;9.026;2023-04-03T06:49:50;4.00;99.90
15288;DHT22;7745;48.708;9.026;2023-04-03T06:52:45;4.20;99.90
15288;DHT22;7745;48.708;9.026;2023-04-03T06:55:16;4.10;99.90
15288;DHT22;7745;48.708;9.026;2023-04-03T06:57:43;4.20;99.90
15288;DHT22;7745;48.708;9.026;2023-04-03T07:00:11;4.10;99.90
15288;DHT22;7745;48.708;9.026;2023-04-03T07:02:38;4.10;99.90
15288;DHT22;7745;48.708;9.026;2023-04-03T07:05:07;4.10;99.90
15288;DHT22;7745;48.708;9.026;2023-04-03T07:07:34;4.10;99.90
15288;DHT22;7745;48.708;9.026;2023-04-03T07:10:01;4.10;99.90
15288;DHT22;7745;48.708;9.026;2023-04-03T07:12:28;4.10;99.90
15288;DHT22;7745;48.708;9.026;2023-04-03T07:14:58;4.20;99.90
15288;DHT22;7745;48.708;9.026;2023-04-03T07:17:26;4.40;99.90
15288;DHT22;7745;48.708;9.026;2023-04-03T07:19:55;4.20;99.90
15288;DHT22;7745;48.708;9.026;2023-04-03T07:22:24;4.30;99.90
15288;DHT22;7745;48.708;9.026;2023-04-03T07:24:51;4.60;99.90
15288;DHT22;7745;48.708;9.026;2023-04-03T07:27:18;4.40;99.90
15288;DHT22;7745;48.708;9.026;2023-04-03T07:29:45;4.40;99.90
15288;DHT22;7745;48.708;9.026;2023-04-03T07:32:13;4.50;99.90
15288;DHT22;7745;48.708;9.026;2023-04-03T07:34:41;4.50;99.90
15288;DHT22;7745;48.708;9.026;2023-04-03T07:37:08;4.60;99.90
15288;DHT22;7745;48.708;9.026;2023-04-03T07:39:38;4.90;99.90
15288;DHT22;7745;48.708;9.026;2023-04-03T07:42:05;4.60;99.90
15288;DHT22;7745;48.708;9.026;2023-04-03T07:44:33;5.00;99.90
15288;DHT22;7745;48.708;9.026;2023-04-03T07:47:01;4.60;99.90
15288;DHT22;7745;48.708;9.026;2023-04-03T07:49:28;4.60;99.90
15288;DHT22;7745;48.708;9.026;2023-04-03T07:51:55;4.60;99.90
15288;DHT22;7745;48.708;9.026;2023-04-03T07:54:24;4.70;99.90
15288;DHT22;7745;48.708;9.026;2023-04-03T07:56:52;4.90;99.90
15288;DHT22;7745;48.708;9.026;2023-04-03T07:59:19;4.90;99.90
15288;DHT22;7745;48.708;9.026;2023-04-03T08:01:46;5.00;99.90
15288;DHT22;7745;48.708;9.026;2023-04-03T08:04:13;5.30;99.90
15288;DHT22;7745;48.708;9.026;2023-04-03T08:06:41;5.00;99.90
15288;DHT22;7745;48.708;9.026;2023-04-03T08:09:08;5.10;99.90
15288;DHT22;7745;48.708;9.026;2023-04-03T08:11:36;5.20;99.90
15288;DHT22;7745;48.708;9.026;2023-04-03T08:14:09;5.10;99.90
15288;DHT22;7745;48.708;9.026;2023-04-03T08:16:44;5.10;99.90
15288;DHT22;7745;48.708;9.026;2023-04-03T08:19:14;5.20;99.90
15288;DHT22;7745;48.708;9.026;2023-04-03T08:21:43;5.10;99.90
15288;DHT22;7745;48.708;9.026;2023-04-03T08:24:11;5.40;99.90
15288;DHT22;7745;48.708;9.026;2023-04-03T08:26:38;5.30;99.90
15288;DHT22;7745;48.708;9.026;2023-04-03T08:29:06;5.30;99.90
15288;DHT22;7745;48.708;9.026;2023-04-03T08:31:34;5.60;99.90
15288;DHT22;7745;48.708;9.026;2023-04-03T08:34:01;5.60;99.90
15288;DHT22;7745;48.708;9.026;2023-04-03T08:36:29;5.40;99.90
15288;DHT22;7745;48.708;9.026;2023-04-03T08:38:57;5.40;99.90
15288;DHT22;7745;48.708;9.026;2023-04-03T08:41:29;5.40;99.90
15288;DHT22;7745;48.708;9.026;2023-04-03T08:44:04;5.50;99.90
15288;DHT22;7745;48.708;9.026;2023-04-03T08:46:52;5.40;99.90
15288;DHT22;7745;48.708;9.026;2023-04-03T08:49:26;5.50;99.90
15288;DHT22;7745;48.708;9.026;2023-04-03T08:51:54;5.40;99.90
15288;DHT22;7745;48.708;9.026;2023-04-03T08:54:28;5.50;99.90
15288;DHT22;7745;48.708;9.026;2023-04-03T08:56:58;5.30;99.90
15288;DHT22;7745;48.708;9.026;2023-04-03T08:59:28;5.40;99.90
15288;DHT22;7745;48.708;9.026;2023-04-03T09:02:00;5.60;99.90
15288;DHT22;7745;48.708;9.026;2023-04-03T09:04:31;5.70;99.90
15288;DHT22;7745;48.708;9.026;2023-04-03T09:07:03;5.80;99.90
15288;DHT22;7745;48.708;9.026;2023-04-03T09:09:35;6.30;99.90
15288;DHT22;7745;48.708;9.026;2023-04-03T09:12:09;6.30;99.90
15288;DHT22;7745;48.708;9.026;2023-04-03T09:14:42;6.20;99.90
15288;DHT22;7745;48.708;9.026;2023-04-03T09:17:17;6.10;99.90
15288;DHT22;7745;48.708;9.026;2023-04-03T09:19:51;6.10;99.90
15288;DHT22;7745;48.708;9.026;2023-04-03T09:22:23;6.20;99.90
15288;DHT22;7745;48.708;9.026;2023-04-03T09:24:57;6.10;99.90
15288;DHT22;7745;48.708;9.026;2023-04-03T09:27:26;6.20;99.90
15288;DHT22;7745;48.708;9.026;2023-04-03T09:29:54;6.00;99.90
15288;DHT22;7745;48.708;9.026;2023-04-03T09:32:27;6.20;99.90
15288;DHT22;7745;48.708;9.026;2023-04-03T09:34:56;6.00;99.90
15288;DHT22;7745;48.708;9.026;2023-04-03T09:37:36;6.10;99.90
15288;DHT22;7745;48.708;9.026;2023-04-03T09:40:28;6.30;99.90
15288;DHT22;7745;48.708;9.026;2023-04-03T09:42:57;6.20;99.90
15288;DHT22;7745;48.708;9.026;2023-04-03T09:45:32;6.20;99.90
15288;DHT22;7745;48.708;9.026;2023-04-03T09:48:19;6.20;99.90
15288;DHT22;7745;48.708;9.026;2023-04-03T09:50:59;6.00;99.90
15288;DHT22;7745;48.708;9.026;2023-04-03T09:53:33;6.70;99.90
15288;DHT22;7745;48.708;9.026;2023-04-03T09:56:02;6.40;99.90
15288;DHT22;7745;48.708;9.026;2023-04-03T09:58:32;6.60;99.90
15288;DHT22;7745;48.708;9.026;2023-04-03T10:01:01;6.20;99.90
15288;DHT22;7745;48.708;9.026;2023-04-03T10:03:40;6.30;99.90
15288;DHT22;7745;48.708;9.026;2023-04-03T10:06:23;6.70;99.90
15288;DHT22;7745;48.708;9.026;2023-04-03T10:08:59;6.60;99.90
15288;DHT22;7745;48.708;9.026;2023-04-03T10:11:26;6.70;99.90
15288;DHT22;7745;48.708;9.026;2023-04-03T10:13:55;6.70;99.90
15288;DHT22;7745;48.708;9.026;2023-04-03T10:16:28;6.80;99.90
15288;DHT22;7745;48.708;9.026;2023-04-03T10:19:24;6.60;99.90
15288;DHT22;7745;48.708;9.026;2023-04-03T10:22:00;6.50;99.90
15288;DHT22;7745;48.708;9.026;2023-04-03T10:24:49;6.50;99.90
15288;DHT22;7745;48.708;9.026;2023-04-03T10:27:24;6.60;99.90
15288;DHT22;7745;48.708;9.026;2023-04-03T10:29:59;6.50;99.90
15288;DHT22;7745;48.708;9.026;2023-04-03T10:32:48;6.60;99.90
15288;DHT22;7745;48.708;9.026;2023-04-03T10:35:24;6.80;99.90
15288;DHT22;7745;48.708;9.026;2023-04-03T10:38:03;6.70;99.90
15288;DHT22;7745;48.708;9.026;2023-04-03T10:40:34;6.80;99.90
15288;DHT22;7745;48.708;9.026;2023-04-03T10:43:09;6.50;99.90
15288;DHT22;7745;48.708;9.026;2023-04-03T10:45:50;6.10;99.90
15288;DHT22;7745;48.708;9.026;2023-04-03T10:48:29;6.00;99.90
15288;DHT22;7745;48.708;9.026;2023-04-03T10:51:11;6.10;99.90
15288;DHT22;7745;48.708;9.026;2023-04-03T10:53:44;5.90;99.90
15288;DHT22;7745;48.708;9.026;2023-04-03T10:56:19;6.00;99.90
15288;DHT22;7745;48.708;9.026;2023-04-03T10:58:51;6.20;99.90
15288;DHT22;7745;48.708;9.026;2023-04-03T11:01:23;6.40;99.90
15288;DHT22;7745;48.708;9.026;2023-04-03T11:03:57;6.50;99.90
15288;DHT22;7745;48.708;9.026;2023-04-03T11:06:32;6.40;99.90
15288;DHT22;7745;48.708;9.026;2023-04-03T11:09:09;6.30;99.90
15288;DHT22;7745;48.708;9.026;2023-04-03T11:11:39;6.20;99.90
15288;DHT22;7745;48.708;9.026;2023-04-03T11:14:12;6.10;99.90
15288;DHT22;7745;48.708;9.026;2023-04-03T11:16:45;6.10;99.90
15288;DHT22;7745;48.708;9.026;2023-04-03T11:19:18;6.10;99.90
15288;DHT22;7745;48.708;9.026;2023-04-03T11:21:54;6.20;99.90
15288;DHT22;7745;48.708;9.026;2023-04-03T11:24:25;6.10;99.90
15288;DHT22;7745;48.708;9.026;2023-04-03T11:26:53;6.10;99.90
15288;DHT22;7745;48.708;9.026;2023-04-03T11:29:23;6.20;99.90
15288;DHT22;7745;48.708;9.026;2023-04-03T11:32:21;6.10;99.90
15288;DHT22;7745;48.708;9.026;2023-04-03T11:34:56;6.20;99.90
15288;DHT22;7745;48.708;9.026;2023-04-03T11:37:31;6.20;99.90
15288;DHT22;7745;48.708;9.026;2023-04-03T11:40:04;6.10;99.90
15288;DHT22;7745;48.708;9.026;2023-04-03T11:42:36;6.20;99.90
15288;DHT22;7745;48.708;9.026;2023-04-03T11:50:48;6.30;99.90
15288;DHT22;7745;48.708;9.026;2023-04-03T11:53:33;6.40;99.90
15288;DHT22;7745;48.708;9.026;2023-04-03T11:56:03;6.40;99.90
15288;DHT22;7745;48.708;9.026;2023-04-03T11:58:32;6.40;99.90
15288;DHT22;7745;48.708;9.026;2023-04-03T12:01:05;6.20;99.90
15288;DHT22;7745;48.708;9.026;2023-04-03T12:03:57;6.10;99.90
15288;DHT22;7745;48.708;9.026;2023-04-03T12:07:02;6.10;99.90
15288;DHT22;7745;48.708;9.026;2023-04-03T12:09:56;6.10;99.90
15288;DHT22;7745;48.708;9.026;2023-04-03T12:12:36;6.30;99.90
15288;DHT22;7745;48.708;9.026;2023-04-03T12:21:12;6.50;99.90
15288;DHT22;7745;48.708;9.026;2023-04-03T12:24:02;6.70;99.90
15288;DHT22;7745;48.708;9.026;2023-04-03T12:26:47;6.70;99.90
15288;DHT22;7745;48.708;9.026;2023-04-03T12:29:20;6.70;99.90
15288;DHT22;7745;48.708;9.026;2023-04-03T12:31:56;6.70;99.90
15288;DHT22;7745;48.708;9.026;2023-04-03T12:34:38;6.50;99.90
15288;DHT22;7745;48.708;9.026;2023-04-03T12:37:17;6.50;99.90
15288;DHT22;7745;48.708;9.026;2023-04-03T12:39:55;6.60;99.90
15288;DHT22;7745;48.708;9.026;2023-04-03T12:42:56;6.70;99.90
15288;DHT22;7745;48.708;9.026;2023-04-03T12:45:27;6.70;99.90
15288;DHT22;7745;48.708;9.026;2023-04-03T12:47:55;6.80;99.90
15288;DHT22;7745;48.708;9.026;2023-04-03T12:50:24;6.80;99.90
15288;DHT22;7745;48.708;9.026;2023-04-03T12:52:59;6.60;99.90
15288;DHT22;7745;48.708;9.026;2023-04-03T12:55:27;6.60;99.90
15288;DHT22;7745;48.708;9.026;2023-04-03T12:57:55;6.60;99.90
15288;DHT22;7745;48.708;9.026;2023-04-03T13:00:31;6.60;99.90
15288;DHT22;7745;48.708;9.026;2023-04-03T13:03:00;6.80;99.90
15288;DHT22;7745;48.708;9.026;2023-04-03T13:05:28;6.80;99.90
15288;DHT22;7745;48.708;9.026;2023-04-03T13:07:59;6.90;99.90
15288;DHT22;7745;48.708;9.026;2023-04-03T13:10:27;7.00;99.90
15288;DHT22;7745;48.708;9.026;2023-04-03T13:12:57;6.80;99.90
15288;DHT22;7745;48.708;9.026;2023-04-03T13:15:25;6.70;99.90
15288;DHT22;7745;48.708;9.026;2023-04-03T13:17:54;6.60;99.90
15288;DHT22;7745;48.708;9.026;2023-04-03T13:20:25;6.70;99.90
15288;DHT22;7745;48.708;9.026;2023-04-03T13:22:57;6.70;99.90
15288;DHT22;7745;48.708;9.026;2023-04-03T13:25:28;6.70;99.90
15288;DHT22;7745;48.708;9.026;2023-04-03T13:27:58;6.80;99.90
15288;DHT22;7745;48.708;9.026;2023-04-03T13:30:28;6.80;99.90
15288;DHT22;7745;48.708;9.026;2023-04-03T13:32:56;6.80;99.90
15288;DHT22;7745;48.708;9.026;2023-04-03T13:35:32;6.90;99.90
15288;DHT22;7745;48.708;9.026;2023-04-03T13:38:04;7.10;99.90
15288;DHT22;7745;48.708;9.026;2023-04-03T13:40:31;7.30;99.90
15288;DHT22;7745;48.708;9.026;2023-04-03T13:43:06;7.40;99.90
15288;DHT22;7745;48.708;9.026;2023-04-03T13:45:54;7.60;99.90
15288;DHT22;7745;48.708;9.026;2023-04-03T13:48:22;7.60;99.90
15288;DHT22;7745;48.708;9.026;2023-04-03T13:50:59;7.70;99.90
15288;DHT22;7745;48.708;9.026;2023-04-03T13:53:27;7.80;99.90
15288;DHT22;7745;48.708;9.026;2023-04-03T13:55:59;7.80;99.90
15288;DHT22;7745;48.708;9.026;2023-04-03T13:58:28;7.80;99.90
15288;DHT22;7745;48.708;9.026;2023-04-03T14:01:00;7.60;99.90
15288;DHT22;7745;48.708;9.026;2023-04-03T14:03:30;7.50;99.90
15288;DHT22;7745;48.708;9.026;2023-04-03T14:05:58;7.80;99.90
15288;DHT22;7745;48.708;9.026;2023-04-03T14:08:26;7.50;99.90
15288;DHT22;7745;48.708;9.026;2023-04-03T14:10:54;7.60;99.90
15288;DHT22;7745;48.708;9.026;2023-04-03T14:13:21;7.70;99.90
15288;DHT22;7745;48.708;9.026;2023-04-03T14:15:49;7.70;99.90
15288;DHT22;7745;48.708;9.026;2023-04-03T14:18:19;7.80;99.90
15288;DHT22;7745;48.708;9.026;2023-04-03T14:20:47;7.80;99.90
15288;DHT22;7745;48.708;9.026;2023-04-03T14:23:14;7.70;99.90
15288;DHT22;7745;48.708;9.026;2023-04-03T14:25:41;7.80;99.90
15288;DHT22;7745;48.708;9.026;2023-04-03T14:28:15;7.80;99.90
15288;DHT22;7745;48.708;9.026;2023-04-03T14:30:42;7.70;99.90
15288;DHT22;7745;48.708;9.026;2023-04-03T14:33:14;7.80;99.90
15288;DHT22;7745;48.708;9.026;2023-04-03T14:35:41;7.70;99.90
15288;DHT22;7745;48.708;9.026;2023-04-03T14:38:22;7.70;99.90
15288;DHT22;7745;48.708;9.026;2023-04-03T14:40:49;7.20;99.90
15288;DHT22;7745;48.708;9.026;2023-04-03T14:43:17;7.30;99.90
15288;DHT22;7745;48.708;9.026;2023-04-03T14:45:44;7.00;99.90
15288;DHT22;7745;48.708;9.026;2023-04-03T14:48:17;6.90;99.90
15288;DHT22;7745;48.708;9.026;2023-04-03T14:50:45;7.00;99.90
15288;DHT22;7745;48.708;9.026;2023-04-03T14:53:12;6.90;99.90
15288;DHT22;7745;48.708;9.026;2023-04-03T14:55:40;6.90;99.90
15288;DHT22;7745;48.708;9.026;2023-04-03T14:58:11;6.90;99.90
15288;DHT22;7745;48.708;9.026;2023-04-03T15:00:38;6.80;99.90
15288;DHT22;7745;48.708;9.026;2023-04-03T15:03:05;6.70;99.90
15288;DHT22;7745;48.708;9.026;2023-04-03T15:05:35;6.60;99.90
15288;DHT22;7745;48.708;9.026;2023-04-03T15:08:02;6.70;99.90
15288;DHT22;7745;48.708;9.026;2023-04-03T15:10:30;6.80;99.90
15288;DHT22;7745;48.708;9.026;2023-04-03T15:12:58;6.90;99.90
15288;DHT22;7745;48.708;9.026;2023-04-03T15:15:29;7.00;99.90
15288;DHT22;7745;48.708;9.026;2023-04-03T15:17:57;7.20;99.90
15288;DHT22;7745;48.708;9.026;2023-04-03T15:20:30;7.10;99.90
15288;DHT22;7745;48.708;9.026;2023-04-03T15:23:00;7.30;99.90
15288;DHT22;7745;48.708;9.026;2023-04-03T15:25:27;7.30;99.90
15288;DHT22;7745;48.708;9.026;2023-04-03T15:27:55;7.30;99.90
15288;DHT22;7745;48.708;9.026;2023-04-03T15:30:23;7.20;99.90
15288;DHT22;7745;48.708;9.026;2023-04-03T15:32:50;7.10;99.90
15288;DHT22;7745;48.708;9.026;2023-04-03T15:35:17;7.10;99.90
15288;DHT22;7745;48.708;9.026;2023-04-03T15:37:44;7.20;99.90
15288;DHT22;7745;48.708;9.026;2023-04-03T15:40:12;7.10;99.90
15288;DHT22;7745;48.708;9.026;2023-04-03T15:42:39;7.20;99.90
15288;DHT22;7745;48.708;9.026;2023-04-03T15:45:07;7.20;99.90
15288;DHT22;7745;48.708;9.026;2023-04-03T15:47:34;7.20;99.90
15288;DHT22;7745;48.708;9.026;2023-04-03T15:50:33;7.30;99.90
15288;DHT22;7745;48.708;9.026;2023-04-03T15:53:02;7.20;99.90
15288;DHT22;7745;48.708;9.026;2023-04-03T15:55:41;7.10;99.90
15288;DHT22;7745;48.708;9.026;2023-04-03T15:59:03;7.00;99.90
15288;DHT22;7745;48.708;9.026;2023-04-03T16:01:22;6.90;99.90
15288;DHT22;7745;48.708;9.026;2023-04-03T16:04:04;6.80;99.90
15288;DHT22;7745;48.708;9.026;2023-04-03T16:06:35;6.90;99.90
15288;DHT22;7745;48.708;9.026;2023-04-03T16:09:06;6.70;99.90
15288;DHT22;7745;48.708;9.026;2023-04-03T16:11:36;6.70;99.90
15288;DHT22;7745;48.708;9.026;2023-04-03T16:14:08;6.70;99.90
15288;DHT22;7745;48.708;9.026;2023-04-03T16:16:41;6.70;99.90
15288;DHT22;7745;48.708;9.026;2023-04-03T16:19:09;6.60;99.90
15288;DHT22;7745;48.708;9.026;2023-04-03T16:21:37;6.50;99.90
15288;DHT22;7745;48.708;9.026;2023-04-03T16:24:04;6.40;99.90
15288;DHT22;7745;48.708;9.026;2023-04-03T16:26:32;6.30;99.90
15288;DHT22;7745;48.708;9.026;2023-04-03T16:28:59;6.30;99.90
15288;DHT22;7745;48.708;9.026;2023-04-03T16:31:26;6.50;99.90
15288;DHT22;7745;48.708;9.026;2023-04-03T16:33:54;6.30;99.90
15288;DHT22;7745;48.708;9.026;2023-04-03T16:36:21;6.40;99.90
15288;DHT22;7745;48.708;9.026;2023-04-03T16:38:49;6.50;99.90
15288;DHT22;7745;48.708;9.026;2023-04-03T16:41:16;6.50;99.90
15288;DHT22;7745;48.708;9.026;2023-04-03T16:43:43;6.50;99.90
15288;DHT22;7745;48.708;9.026;2023-04-03T16:46:10;6.60;99.90